createdAt,value
2018-07-22T00:00:35.820Z,19.65
2018-07-22T00:01:35.760Z,19.70
2018-07-22T00:03:29.060Z,19.63
2018-07-22T00:04:28.979Z,19.67
2018-07-22T00:06:22.283Z,19.60
2018-07-22T00:07:22.209Z,19.61
2018-07-22T00:09:15.503Z,19.49
2018-07-22T00:10:15.423Z,19.50
2018-07-22T00:12:08.704Z,19.57
2018-07-22T00:13:08.645Z,19.50
2018-07-22T00:15:01.949Z,19.50
2018-07-22T00:16:01.865Z,19.55
2018-07-22T00:17:55.171Z,19.46
2018-07-22T00:18:55.088Z,19.47
2018-07-22T00:20:48.369Z,19.49
2018-07-22T00:21:48.309Z,19.49
2018-07-22T00:23:41.607Z,19.50
2018-07-22T00:24:41.528Z,19.49
2018-07-22T00:26:34.813Z,19.49
2018-07-22T00:27:34.748Z,19.53
2018-07-22T00:29:28.047Z,19.47
2018-07-22T00:30:27.968Z,19.49
2018-07-22T00:32:21.377Z,19.40
2018-07-22T00:33:21.317Z,19.47
2018-07-22T00:35:14.617Z,19.45
2018-07-22T00:36:14.537Z,19.43
2018-07-22T00:38:07.838Z,19.50
2018-07-22T00:39:07.759Z,19.50
2018-07-22T00:41:01.144Z,19.42
2018-07-22T00:42:00.978Z,19.47
2018-07-22T00:43:54.280Z,19.52
2018-07-22T00:44:54.200Z,19.43
2018-07-22T00:46:47.586Z,19.50
2018-07-22T00:47:47.422Z,19.42
2018-07-22T00:49:40.724Z,19.42
2018-07-22T00:50:40.646Z,19.38
2018-07-22T00:52:33.923Z,19.38
2018-07-22T00:53:33.862Z,19.38
2018-07-22T00:55:27.161Z,19.40
2018-07-22T00:56:27.082Z,19.35
2018-07-22T00:58:20.374Z,19.35
2018-07-22T00:59:20.294Z,19.34
2018-07-22T01:01:13.678Z,19.27
2018-07-22T01:02:13.514Z,19.37
2018-07-22T01:04:06.813Z,19.34
2018-07-22T01:05:06.733Z,19.23
2018-07-22T01:07:00.015Z,19.32
2018-07-22T01:07:59.954Z,19.25
2018-07-22T01:09:53.253Z,19.30
2018-07-22T01:10:53.174Z,19.30
2018-07-22T01:12:46.455Z,19.31
2018-07-22T01:13:46.394Z,19.31
2018-07-22T01:15:39.693Z,19.28
2018-07-22T01:16:39.613Z,19.25
2018-07-22T01:18:32.905Z,19.23
2018-07-22T01:19:32.825Z,19.23
2018-07-22T01:21:26.105Z,19.23
2018-07-22T01:22:26.046Z,19.19
2018-07-22T01:24:19.395Z,19.20
2018-07-22T01:25:19.315Z,19.20
2018-07-22T01:27:12.595Z,19.15
2018-07-22T01:28:12.535Z,18.99
2018-07-22T01:30:05.835Z,18.97
2018-07-22T01:31:05.755Z,19.02
2018-07-22T01:32:59.035Z,19.06
2018-07-22T01:33:58.974Z,19.02
2018-07-22T01:35:52.272Z,19.06
2018-07-22T01:36:52.194Z,19.07
2018-07-22T01:38:45.483Z,19.02
2018-07-22T01:39:45.404Z,19.02
2018-07-22T01:41:38.684Z,19.06
2018-07-22T01:42:38.624Z,19.02
2018-07-22T01:44:31.913Z,19.05
2018-07-22T01:45:31.837Z,19.02
2018-07-22T01:47:25.111Z,18.97
2018-07-22T01:48:25.053Z,19.06
2018-07-22T01:50:18.352Z,18.86
2018-07-22T01:51:18.270Z,18.99
2018-07-22T01:53:11.551Z,18.99
2018-07-22T01:54:11.489Z,18.90
2018-07-22T01:56:04.779Z,18.93
2018-07-22T01:57:04.697Z,18.86
2018-07-22T01:58:57.987Z,18.87
2018-07-22T01:59:57.908Z,18.90
2018-07-22T02:01:51.188Z,18.87
2018-07-22T02:02:51.126Z,18.89
2018-07-22T02:04:44.431Z,18.76
2018-07-22T02:05:44.346Z,18.78
2018-07-22T02:07:37.625Z,18.76
2018-07-22T02:08:37.564Z,18.74
2018-07-22T02:10:30.863Z,18.75
2018-07-22T02:11:30.782Z,18.71
2018-07-22T02:13:24.062Z,18.60
2018-07-22T02:14:23.999Z,18.65
2018-07-22T02:16:17.393Z,18.61
2018-07-22T02:17:17.311Z,18.60
2018-07-22T02:19:10.610Z,18.61
2018-07-22T02:20:10.530Z,18.54
2018-07-22T02:22:03.809Z,18.54
2018-07-22T02:23:03.749Z,18.59
2018-07-22T02:24:57.040Z,18.60
2018-07-22T02:25:56.958Z,18.51
2018-07-22T02:27:50.228Z,18.60
2018-07-22T02:28:50.166Z,18.53
2018-07-22T02:30:43.465Z,18.61
2018-07-22T02:31:43.385Z,18.45
2018-07-22T02:33:36.656Z,18.45
2018-07-22T02:34:36.593Z,18.45
2018-07-22T02:36:29.896Z,18.44
2018-07-22T02:37:29.811Z,18.41
2018-07-22T02:39:23.112Z,18.44
2018-07-22T02:40:23.031Z,18.42
2018-07-22T02:42:16.297Z,18.39
2018-07-22T02:43:16.237Z,18.35
2018-07-22T02:45:09.535Z,18.44
2018-07-22T02:46:09.454Z,18.31
2018-07-22T02:48:02.727Z,18.32
2018-07-22T02:49:02.666Z,18.36
2018-07-22T02:50:55.962Z,18.36
2018-07-22T02:51:55.881Z,18.32
2018-07-22T02:53:49.160Z,18.29
2018-07-22T02:54:49.103Z,18.27
2018-07-22T02:56:42.394Z,18.29
2018-07-22T02:57:42.317Z,18.29
2018-07-22T02:59:35.613Z,18.23
2018-07-22T03:00:35.531Z,18.36
2018-07-22T03:02:28.802Z,18.35
2018-07-22T03:03:28.750Z,18.29
2018-07-22T03:05:22.038Z,18.23
2018-07-22T03:06:21.957Z,18.32
2018-07-22T03:08:15.231Z,18.23
2018-07-22T03:09:15.169Z,18.27
2018-07-22T03:11:08.572Z,18.20
2018-07-22T03:12:08.377Z,18.34
2018-07-22T03:14:01.659Z,18.32
2018-07-22T03:15:01.595Z,18.38
2018-07-22T03:16:54.894Z,18.19
2018-07-22T03:17:54.816Z,18.24
2018-07-22T03:19:48.110Z,18.20
2018-07-22T03:20:48.031Z,18.23
2018-07-22T03:22:41.375Z,18.17
2018-07-22T03:23:41.310Z,18.20
2018-07-22T03:25:34.610Z,18.13
2018-07-22T03:26:34.530Z,18.13
2018-07-22T03:28:27.797Z,18.08
2018-07-22T03:29:27.736Z,18.16
2018-07-22T03:31:21.033Z,18.10
2018-07-22T03:32:20.955Z,18.10
2018-07-22T03:34:14.232Z,18.08
2018-07-22T03:35:14.171Z,18.16
2018-07-22T03:37:07.571Z,18.16
2018-07-22T03:38:07.390Z,18.11
2018-07-22T03:40:01.289Z,18.13
2018-07-22T03:41:00.605Z,18.10
2018-07-22T03:42:53.883Z,17.95
2018-07-22T03:43:53.822Z,17.98
2018-07-22T03:45:47.120Z,17.98
2018-07-22T03:46:47.039Z,17.96
2018-07-22T03:48:40.309Z,17.90
2018-07-22T03:49:40.246Z,17.86
2018-07-22T03:51:33.648Z,17.80
2018-07-22T03:52:33.464Z,17.77
2018-07-22T03:54:26.847Z,17.84
2018-07-22T03:55:26.680Z,17.87
2018-07-22T03:57:19.983Z,17.88
2018-07-22T03:58:19.904Z,17.79
2018-07-22T04:00:13.200Z,17.77
2018-07-22T04:01:13.119Z,17.84
2018-07-22T04:03:06.418Z,17.74
2018-07-22T04:04:06.335Z,17.79
2018-07-22T04:05:59.632Z,17.71
2018-07-22T04:06:59.598Z,17.73
2018-07-22T04:08:52.821Z,17.71
2018-07-22T04:09:52.759Z,17.74
2018-07-22T04:11:46.054Z,17.79
2018-07-22T04:12:45.974Z,17.81
2018-07-22T04:14:39.374Z,17.87
2018-07-22T04:15:39.312Z,17.87
2018-07-22T04:17:32.609Z,17.87
2018-07-22T04:18:32.529Z,17.81
2018-07-22T04:20:25.828Z,17.83
2018-07-22T04:21:25.806Z,17.77
2018-07-22T04:23:19.023Z,17.77
2018-07-22T04:24:18.962Z,17.71
2018-07-22T04:26:12.258Z,17.69
2018-07-22T04:27:12.179Z,17.65
2018-07-22T04:29:05.466Z,17.74
2018-07-22T04:30:05.404Z,17.60
2018-07-22T04:31:58.703Z,17.65
2018-07-22T04:32:58.620Z,17.49
2018-07-22T04:34:51.899Z,17.73
2018-07-22T04:35:51.837Z,17.68
2018-07-22T04:37:45.135Z,17.66
2018-07-22T04:38:45.053Z,17.60
2018-07-22T04:40:38.352Z,17.58
2018-07-22T04:41:38.272Z,17.76
2018-07-22T04:43:31.551Z,17.80
2018-07-22T04:44:31.493Z,17.77
2018-07-22T04:46:24.786Z,17.80
2018-07-22T04:47:24.707Z,17.83
2018-07-22T04:49:17.985Z,17.83
2018-07-22T04:50:17.923Z,17.79
2018-07-22T04:52:11.220Z,17.79
2018-07-22T04:53:11.139Z,17.80
2018-07-22T04:55:04.417Z,17.76
2018-07-22T04:56:04.370Z,17.77
2018-07-22T04:57:57.757Z,17.86
2018-07-22T04:58:57.565Z,17.80
2018-07-22T05:00:50.861Z,17.79
2018-07-22T05:01:50.781Z,17.92
2018-07-22T05:03:44.060Z,17.90
2018-07-22T05:04:43.997Z,17.92
2018-07-22T05:06:37.396Z,17.81
2018-07-22T05:07:37.315Z,17.80
2018-07-22T05:09:30.592Z,17.79
2018-07-22T05:10:30.530Z,17.84
2018-07-22T05:12:23.829Z,17.83
2018-07-22T05:13:23.748Z,17.84
2018-07-22T05:15:17.029Z,17.87
2018-07-22T05:16:16.968Z,17.92
2018-07-22T05:18:10.260Z,18.01
2018-07-22T05:19:10.176Z,18.05
2018-07-22T05:21:03.473Z,18.11
2018-07-22T05:22:03.391Z,18.08
2018-07-22T05:23:56.670Z,18.19
2018-07-22T05:24:56.609Z,18.32
2018-07-22T05:26:49.906Z,18.34
2018-07-22T05:27:49.827Z,18.36
2018-07-22T05:29:43.123Z,18.39
2018-07-22T05:30:43.059Z,18.38
2018-07-22T05:32:36.360Z,18.32
2018-07-22T05:33:36.277Z,18.19
2018-07-22T05:35:29.557Z,18.20
2018-07-22T05:36:29.498Z,18.21
2018-07-22T05:38:22.788Z,18.23
2018-07-22T05:39:22.708Z,18.24
2018-07-22T05:41:16.109Z,18.34
2018-07-22T05:42:15.927Z,18.17
2018-07-22T05:44:09.207Z,18.29
2018-07-22T05:45:09.149Z,18.36
2018-07-22T05:47:02.549Z,18.51
2018-07-22T05:48:02.365Z,18.54
2018-07-22T05:49:55.644Z,18.68
2018-07-22T05:50:55.584Z,18.71
2018-07-22T05:52:48.887Z,18.65
2018-07-22T05:53:48.805Z,18.71
2018-07-22T05:55:42.086Z,18.66
2018-07-22T05:56:42.026Z,18.74
2018-07-22T05:58:35.398Z,18.72
2018-07-22T05:59:35.317Z,18.69
2018-07-22T06:01:28.620Z,18.65
2018-07-22T06:02:28.540Z,18.78
2018-07-22T06:04:21.926Z,18.78
2018-07-22T06:05:21.760Z,18.84
2018-07-22T06:07:15.060Z,18.99
2018-07-22T06:08:14.981Z,19.05
2018-07-22T06:10:08.261Z,19.15
2018-07-22T06:11:08.201Z,19.16
2018-07-22T06:13:01.502Z,19.23
2018-07-22T06:14:01.423Z,19.28
2018-07-22T06:15:54.707Z,19.31
2018-07-22T06:16:54.645Z,19.38
2018-07-22T06:18:47.936Z,19.56
2018-07-22T06:19:47.859Z,19.40
2018-07-22T06:21:41.159Z,19.45
2018-07-22T06:22:41.081Z,19.35
2018-07-22T06:24:34.363Z,19.15
2018-07-22T06:25:34.305Z,19.31
2018-07-22T06:27:27.707Z,19.35
2018-07-22T06:28:27.526Z,19.30
2018-07-22T06:30:20.808Z,19.47
2018-07-22T06:31:20.749Z,19.56
2018-07-22T06:33:14.051Z,19.79
2018-07-22T06:34:13.972Z,19.97
2018-07-22T06:36:07.379Z,20.66
2018-07-22T06:37:07.320Z,21.06
2018-07-22T06:39:00.624Z,21.90
2018-07-22T06:40:00.548Z,21.99
2018-07-22T06:41:53.956Z,22.42
2018-07-22T06:42:53.785Z,22.15
2018-07-22T06:44:47.074Z,22.76
2018-07-22T06:45:47.020Z,23.06
2018-07-22T06:47:40.334Z,22.26
2018-07-22T06:48:40.258Z,22.05
2018-07-22T06:50:33.557Z,21.74
2018-07-22T06:51:33.504Z,22.26
2018-07-22T06:53:26.821Z,22.07
2018-07-22T06:54:26.822Z,22.14
2018-07-22T06:56:20.045Z,22.39
2018-07-22T06:57:20.017Z,22.51
2018-07-22T06:59:13.400Z,23.37
2018-07-22T07:00:13.340Z,22.75
2018-07-22T07:02:06.647Z,22.75
2018-07-22T07:03:06.578Z,22.76
2018-07-22T07:04:59.931Z,23.00
2018-07-22T07:05:59.826Z,23.32
2018-07-22T07:07:53.145Z,23.93
2018-07-22T07:08:53.077Z,24.03
2018-07-22T07:10:46.378Z,24.21
2018-07-22T07:11:46.326Z,24.15
2018-07-22T07:13:39.648Z,23.75
2018-07-22T07:14:39.577Z,23.15
2018-07-22T07:16:32.879Z,22.66
2018-07-22T07:17:32.829Z,22.45
2018-07-22T07:19:26.141Z,23.40
2018-07-22T07:20:26.071Z,23.85
2018-07-22T07:22:19.489Z,24.61
2018-07-22T07:23:19.334Z,23.59
2018-07-22T07:25:12.731Z,22.76
2018-07-22T07:26:12.577Z,22.71
2018-07-22T07:28:05.991Z,22.49
2018-07-22T07:29:05.819Z,22.45
2018-07-22T07:30:59.110Z,22.89
2018-07-22T07:31:59.060Z,23.15
2018-07-22T07:33:52.370Z,23.09
2018-07-22T07:34:52.303Z,23.34
2018-07-22T07:36:45.596Z,23.66
2018-07-22T07:37:45.548Z,23.67
2018-07-22T07:39:38.857Z,23.94
2018-07-22T07:40:38.790Z,24.48
2018-07-22T07:42:33.101Z,24.86
2018-07-22T07:43:33.033Z,25.12
2018-07-22T07:45:26.325Z,25.54
2018-07-22T07:46:26.278Z,25.38
2018-07-22T07:48:19.590Z,25.81
2018-07-22T07:49:19.522Z,26.07
2018-07-22T07:51:12.825Z,25.88
2018-07-22T07:52:12.778Z,25.91
2018-07-22T07:54:07.101Z,25.20
2018-07-22T07:55:07.031Z,24.82
2018-07-22T07:57:00.335Z,24.80
2018-07-22T07:58:00.287Z,24.85
2018-07-22T07:59:53.607Z,25.47
2018-07-22T08:00:53.540Z,25.79
2018-07-22T08:02:46.897Z,24.90
2018-07-22T08:03:46.795Z,25.26
2018-07-22T08:05:40.102Z,24.46
2018-07-22T08:06:40.048Z,23.97
2018-07-22T08:08:33.408Z,23.92
2018-07-22T08:09:33.337Z,23.96
2018-07-22T08:11:27.641Z,24.93
2018-07-22T08:12:27.590Z,25.00
2018-07-22T08:14:20.909Z,25.02
2018-07-22T08:15:20.841Z,25.19
2018-07-22T08:17:14.142Z,25.20
2018-07-22T08:18:14.092Z,25.14
2018-07-22T08:20:07.509Z,24.15
2018-07-22T08:21:07.340Z,23.60
2018-07-22T08:23:00.658Z,24.49
2018-07-22T08:24:00.588Z,25.00
2018-07-22T08:25:53.888Z,24.96
2018-07-22T08:26:53.835Z,24.49
2018-07-22T08:28:47.143Z,24.15
2018-07-22T08:29:47.074Z,24.54
2018-07-22T08:31:40.373Z,24.58
2018-07-22T08:32:40.318Z,24.45
2018-07-22T08:34:33.733Z,24.11
2018-07-22T08:35:33.562Z,23.82
2018-07-22T08:37:26.366Z,23.77
2018-07-22T08:38:26.313Z,24.04
2018-07-22T08:40:19.626Z,24.30
2018-07-22T08:41:19.573Z,24.33
2018-07-22T08:43:12.870Z,24.77
2018-07-22T08:44:12.800Z,24.92
2018-07-22T08:46:06.191Z,24.90
2018-07-22T08:47:06.046Z,24.83
2018-07-22T08:48:59.405Z,25.37
2018-07-22T08:49:59.335Z,25.86
2018-07-22T08:51:52.631Z,26.22
2018-07-22T08:52:52.576Z,26.03
2018-07-22T08:54:45.889Z,26.50
2018-07-22T08:55:45.818Z,25.74
2018-07-22T08:57:39.113Z,25.14
2018-07-22T08:58:39.059Z,24.85
2018-07-22T09:00:32.375Z,24.85
2018-07-22T09:01:32.302Z,25.39
2018-07-22T09:03:25.617Z,26.04
2018-07-22T09:04:25.641Z,26.01
2018-07-22T09:06:18.838Z,25.91
2018-07-22T09:07:18.788Z,25.62
2018-07-22T09:09:12.120Z,26.07
2018-07-22T09:10:12.048Z,26.03
2018-07-22T09:12:05.390Z,26.78
2018-07-22T09:13:05.337Z,27.12
2018-07-22T09:14:58.651Z,26.82
2018-07-22T09:15:58.581Z,26.52
2018-07-22T09:17:51.915Z,26.60
2018-07-22T09:18:51.826Z,26.54
2018-07-22T09:20:45.144Z,26.89
2018-07-22T09:21:45.072Z,26.57
2018-07-22T09:23:38.390Z,27.01
2018-07-22T09:24:38.317Z,27.21
2018-07-22T09:26:31.614Z,26.84
2018-07-22T09:27:31.563Z,26.53
2018-07-22T09:29:24.977Z,26.41
2018-07-22T09:30:24.809Z,26.54
2018-07-22T09:32:18.096Z,26.81
2018-07-22T09:33:18.045Z,27.31
2018-07-22T09:35:11.411Z,27.80
2018-07-22T09:36:11.418Z,27.91
2018-07-22T09:38:05.629Z,27.45
2018-07-22T09:39:05.576Z,27.19
2018-07-22T09:40:58.898Z,27.36
2018-07-22T09:41:58.812Z,27.45
2018-07-22T09:43:52.119Z,27.71
2018-07-22T09:44:52.044Z,28.17
2018-07-22T09:46:45.396Z,28.35
2018-07-22T09:47:45.345Z,28.36
2018-07-22T09:49:38.759Z,28.63
2018-07-22T09:50:38.582Z,28.97
2018-07-22T09:52:32.870Z,27.84
2018-07-22T09:53:32.985Z,27.71
2018-07-22T09:55:26.128Z,27.89
2018-07-22T09:56:26.061Z,27.86
2018-07-22T09:58:19.403Z,28.28
2018-07-22T09:59:19.368Z,28.03
2018-07-22T10:01:12.659Z,28.03
2018-07-22T10:02:12.588Z,27.91
2018-07-22T10:04:05.897Z,28.48
2018-07-22T10:05:05.830Z,28.36
2018-07-22T10:06:59.226Z,29.15
2018-07-22T10:07:59.068Z,29.61
2018-07-22T10:09:52.377Z,28.46
2018-07-22T10:10:52.309Z,28.06
2018-07-22T10:12:45.607Z,28.26
2018-07-22T10:13:45.550Z,28.39
2018-07-22T10:15:38.863Z,27.36
2018-07-22T10:16:38.791Z,27.55
2018-07-22T10:18:32.083Z,28.24
2018-07-22T10:19:32.034Z,28.43
2018-07-22T10:21:25.417Z,28.73
2018-07-22T10:22:25.345Z,29.14
2018-07-22T10:24:18.663Z,29.17
2018-07-22T10:25:18.588Z,28.94
2018-07-22T10:27:11.899Z,29.26
2018-07-22T10:28:11.849Z,28.67
2018-07-22T10:30:05.162Z,27.87
2018-07-22T10:31:05.091Z,28.18
2018-07-22T10:32:58.384Z,29.65
2018-07-22T10:33:58.333Z,29.60
2018-07-22T10:35:51.682Z,28.67
2018-07-22T10:36:51.587Z,28.49
2018-07-22T10:38:44.891Z,28.27
2018-07-22T10:39:44.840Z,28.42
2018-07-22T10:41:38.153Z,28.61
2018-07-22T10:42:38.081Z,28.39
2018-07-22T10:44:31.417Z,29.15
2018-07-22T10:45:31.352Z,29.79
2018-07-22T10:47:24.751Z,30.25
2018-07-22T10:48:24.593Z,30.45
2018-07-22T10:50:18.012Z,30.77
2018-07-22T10:51:17.834Z,30.29
2018-07-22T10:53:11.137Z,28.46
2018-07-22T10:54:11.087Z,27.96
2018-07-22T10:56:04.400Z,28.41
2018-07-22T10:57:04.332Z,28.61
2018-07-22T10:58:57.625Z,29.58
2018-07-22T10:59:57.575Z,30.02
2018-07-22T11:01:50.993Z,29.30
2018-07-22T11:02:50.818Z,28.91
2018-07-22T11:04:44.133Z,29.51
2018-07-22T11:05:44.068Z,29.11
2018-07-22T11:07:37.396Z,28.82
2018-07-22T11:08:37.351Z,29.11
2018-07-22T11:10:31.274Z,30.11
2018-07-22T11:11:30.596Z,30.62
2018-07-22T11:13:23.890Z,31.23
2018-07-22T11:14:23.862Z,31.38
2018-07-22T11:16:17.153Z,30.44
2018-07-22T11:17:17.087Z,30.56
2018-07-22T11:19:10.381Z,30.18
2018-07-22T11:20:10.332Z,28.83
2018-07-22T11:22:03.646Z,27.79
2018-07-22T11:23:03.578Z,27.27
2018-07-22T11:24:56.892Z,27.23
2018-07-22T11:25:56.820Z,27.52
2018-07-22T11:27:50.114Z,28.08
2018-07-22T11:28:50.109Z,28.31
2018-07-22T11:30:43.418Z,29.10
2018-07-22T11:31:43.347Z,29.61
2018-07-22T11:33:36.661Z,30.25
2018-07-22T11:34:36.611Z,30.40
2018-07-22T11:36:29.933Z,30.29
2018-07-22T11:37:29.868Z,30.10
2018-07-22T11:39:23.160Z,28.92
2018-07-22T11:40:23.110Z,27.52
2018-07-22T11:42:16.430Z,27.49
2018-07-22T11:43:16.363Z,27.53
2018-07-22T11:45:09.672Z,27.43
2018-07-22T11:46:09.603Z,27.61
2018-07-22T11:48:02.896Z,27.49
2018-07-22T11:49:02.846Z,27.51
2018-07-22T11:50:56.163Z,27.84
2018-07-22T11:51:56.087Z,27.99
2018-07-22T11:53:49.387Z,27.87
2018-07-22T11:54:49.335Z,27.65
2018-07-22T11:56:42.643Z,27.84
2018-07-22T11:57:42.573Z,27.99
2018-07-22T11:59:35.863Z,28.17
2018-07-22T12:00:35.802Z,28.03
2018-07-22T12:02:29.114Z,28.05
2018-07-22T12:03:29.046Z,28.24
2018-07-22T12:05:22.352Z,28.45
2018-07-22T12:06:22.283Z,28.41
2018-07-22T12:08:15.701Z,28.68
2018-07-22T12:09:15.521Z,28.76
2018-07-22T12:11:08.828Z,28.73
2018-07-22T12:12:08.764Z,28.39
2018-07-22T12:14:02.061Z,27.91
2018-07-22T12:15:02.004Z,28.21
2018-07-22T12:16:55.322Z,28.38
2018-07-22T12:17:55.240Z,28.38
2018-07-22T12:19:48.542Z,28.85
2018-07-22T12:20:48.490Z,29.11
2018-07-22T12:22:41.798Z,29.32
2018-07-22T12:23:41.777Z,28.83
2018-07-22T12:25:36.035Z,28.76
2018-07-22T12:26:35.972Z,28.95
2018-07-22T12:28:29.395Z,28.94
2018-07-22T12:29:29.342Z,28.83
2018-07-22T12:31:22.652Z,29.02
2018-07-22T12:32:22.582Z,28.61
2018-07-22T12:34:15.912Z,27.99
2018-07-22T12:35:15.821Z,28.18
2018-07-22T12:37:09.130Z,27.99
2018-07-22T12:38:09.061Z,27.65
2018-07-22T12:40:02.352Z,27.79
2018-07-22T12:41:02.297Z,27.90
2018-07-22T12:42:55.692Z,28.26
2018-07-22T12:43:55.622Z,28.06
2018-07-22T12:45:48.930Z,28.53
2018-07-22T12:46:48.860Z,28.70
2018-07-22T12:48:43.147Z,28.23
2018-07-22T12:49:43.096Z,27.99
2018-07-22T12:51:36.404Z,28.18
2018-07-22T12:52:36.339Z,28.21
2018-07-22T12:54:29.632Z,28.64
2018-07-22T12:55:29.573Z,28.75
2018-07-22T12:57:22.880Z,28.72
2018-07-22T12:58:22.810Z,28.70
2018-07-22T13:00:17.099Z,28.75
2018-07-22T13:01:17.051Z,28.57
2018-07-22T13:03:10.358Z,28.03
2018-07-22T13:04:10.283Z,27.94
2018-07-22T13:06:03.593Z,28.08
2018-07-22T13:07:03.519Z,28.23
2018-07-22T13:08:56.811Z,28.33
2018-07-22T13:09:56.765Z,28.23
2018-07-22T13:11:50.076Z,28.41
2018-07-22T13:12:50.005Z,28.11
2018-07-22T13:14:43.403Z,28.06
2018-07-22T13:15:43.347Z,28.17
2018-07-22T13:17:36.664Z,28.21
2018-07-22T13:18:36.595Z,28.46
2018-07-22T13:20:29.893Z,28.86
2018-07-22T13:21:29.843Z,29.13
2018-07-22T13:23:23.162Z,28.91
2018-07-22T13:24:23.084Z,28.38
2018-07-22T13:26:16.406Z,28.58
2018-07-22T13:27:16.335Z,28.64
2018-07-22T13:29:10.636Z,28.54
2018-07-22T13:30:10.583Z,28.75
2018-07-22T13:32:03.999Z,29.15
2018-07-22T13:33:03.829Z,29.29
2018-07-22T13:34:57.726Z,29.15
2018-07-22T13:35:57.078Z,28.76
2018-07-22T13:37:51.486Z,28.82
2018-07-22T13:38:51.414Z,28.82
2018-07-22T13:40:44.714Z,28.53
2018-07-22T13:41:44.665Z,28.70
2018-07-22T13:43:37.982Z,28.73
2018-07-22T13:44:37.909Z,28.60
2018-07-22T13:46:31.440Z,28.30
2018-07-22T13:47:31.154Z,28.41
2018-07-22T13:49:24.542Z,28.64
2018-07-22T13:50:24.386Z,28.63
2018-07-22T13:52:17.702Z,28.94
2018-07-22T13:53:17.640Z,28.91
2018-07-22T13:55:10.919Z,28.60
2018-07-22T13:56:10.869Z,28.60
2018-07-22T13:58:04.175Z,28.90
2018-07-22T13:59:04.110Z,28.85
2018-07-22T14:00:57.402Z,29.18
2018-07-22T14:01:57.356Z,29.21
2018-07-22T14:03:50.658Z,29.17
2018-07-22T14:04:50.591Z,28.94
2018-07-22T14:06:44.506Z,28.73
2018-07-22T14:07:43.825Z,28.80
2018-07-22T14:09:37.127Z,28.83
2018-07-22T14:10:37.076Z,28.61
2018-07-22T14:12:30.490Z,28.28
2018-07-22T14:13:30.313Z,27.99
2018-07-22T14:15:23.600Z,27.90
2018-07-22T14:16:23.550Z,28.11
2018-07-22T14:18:16.858Z,27.90
2018-07-22T14:19:16.785Z,27.81
2018-07-22T14:21:10.074Z,27.71
2018-07-22T14:22:10.021Z,27.72
2018-07-22T14:24:03.413Z,27.57
2018-07-22T14:25:03.359Z,27.51
2018-07-22T14:26:56.647Z,27.75
2018-07-22T14:27:56.580Z,27.94
2018-07-22T14:29:49.862Z,27.62
2018-07-22T14:30:49.808Z,27.61
2018-07-22T14:32:43.111Z,27.87
2018-07-22T14:33:43.041Z,27.84
2018-07-22T14:35:36.325Z,27.68
2018-07-22T14:36:36.279Z,27.53
2018-07-22T14:38:29.687Z,27.81
2018-07-22T14:39:29.506Z,27.75
2018-07-22T14:41:22.802Z,27.64
2018-07-22T14:42:22.748Z,27.75
2018-07-22T14:44:17.065Z,28.14
2018-07-22T14:45:16.992Z,28.02
2018-07-22T14:47:10.320Z,28.14
2018-07-22T14:48:10.232Z,28.05
2018-07-22T14:50:03.528Z,27.89
2018-07-22T14:51:03.476Z,27.80
2018-07-22T14:52:56.790Z,27.43
2018-07-22T14:53:56.720Z,27.38
2018-07-22T14:55:50.117Z,27.46
2018-07-22T14:56:49.960Z,27.68
2018-07-22T14:58:43.415Z,27.94
2018-07-22T14:59:43.347Z,28.03
2018-07-22T15:01:36.643Z,27.76
2018-07-22T15:02:36.586Z,27.81
2018-07-22T15:04:29.901Z,27.80
2018-07-22T15:05:29.829Z,27.89
2018-07-22T15:07:23.141Z,28.01
2018-07-22T15:08:23.070Z,28.05
2018-07-22T15:10:16.365Z,28.23
2018-07-22T15:11:16.313Z,28.23
2018-07-22T15:13:09.627Z,28.02
2018-07-22T15:14:09.559Z,28.23
2018-07-22T15:16:02.859Z,28.35
2018-07-22T15:17:02.799Z,28.48
2018-07-22T15:18:56.115Z,28.41
2018-07-22T15:19:56.044Z,28.33
2018-07-22T15:21:49.394Z,28.24
2018-07-22T15:22:49.343Z,28.23
2018-07-22T15:24:42.652Z,28.31
2018-07-22T15:25:42.585Z,28.39
2018-07-22T15:27:35.903Z,28.33
2018-07-22T15:28:35.831Z,28.45
2018-07-22T15:30:29.131Z,28.55
2018-07-22T15:31:29.077Z,28.57
2018-07-22T15:33:22.394Z,28.27
2018-07-22T15:34:22.322Z,27.94
2018-07-22T15:36:15.617Z,28.02
2018-07-22T15:37:15.568Z,27.90
2018-07-22T15:39:09.885Z,27.69
2018-07-22T15:40:09.810Z,27.46
2018-07-22T15:42:03.106Z,27.76
2018-07-22T15:43:03.061Z,27.89
2018-07-22T15:44:57.416Z,28.01
2018-07-22T15:45:57.343Z,28.02
2018-07-22T15:47:50.652Z,28.06
2018-07-22T15:48:50.585Z,27.76
2018-07-22T15:50:43.880Z,27.81
2018-07-22T15:51:43.828Z,27.90
2018-07-22T15:53:37.141Z,27.72
2018-07-22T15:54:37.069Z,27.74
2018-07-22T15:56:30.961Z,27.74
2018-07-22T15:57:30.303Z,27.89
2018-07-22T15:59:23.626Z,27.74
2018-07-22T16:00:23.556Z,27.52
2018-07-22T16:02:16.854Z,27.53
2018-07-22T16:03:16.802Z,27.52
2018-07-22T16:05:10.114Z,27.65
2018-07-22T16:06:10.040Z,27.71
2018-07-22T16:08:03.374Z,27.81
2018-07-22T16:09:03.301Z,27.98
2018-07-22T16:10:56.106Z,27.79
2018-07-22T16:11:56.052Z,27.89
2018-07-22T16:13:49.416Z,27.96
2018-07-22T16:14:49.341Z,27.86
2018-07-22T16:16:42.637Z,27.98
2018-07-22T16:17:42.583Z,27.90
2018-07-22T16:19:35.898Z,27.79
2018-07-22T16:20:35.825Z,27.62
2018-07-22T16:22:29.121Z,27.69
2018-07-22T16:23:29.069Z,27.68
2018-07-22T16:25:22.386Z,27.80
2018-07-22T16:26:22.311Z,27.90
2018-07-22T16:28:15.616Z,27.69
2018-07-22T16:29:15.544Z,27.69
2018-07-22T16:31:08.842Z,27.71
2018-07-22T16:32:08.786Z,27.93
2018-07-22T16:34:03.103Z,28.12
2018-07-22T16:35:03.030Z,28.21
2018-07-22T16:36:56.331Z,28.35
2018-07-22T16:37:56.275Z,28.36
2018-07-22T16:39:49.593Z,28.36
2018-07-22T16:40:49.518Z,28.28
2018-07-22T16:42:42.815Z,28.23
2018-07-22T16:43:42.762Z,28.20
2018-07-22T16:45:36.076Z,28.18
2018-07-22T16:46:36.005Z,28.23
2018-07-22T16:48:29.447Z,28.49
2018-07-22T16:49:29.344Z,28.54
2018-07-22T16:51:23.646Z,28.38
2018-07-22T16:52:23.588Z,28.35
2018-07-22T16:54:16.906Z,28.49
2018-07-22T16:55:16.835Z,28.51
2018-07-22T16:57:10.131Z,28.33
2018-07-22T16:58:10.076Z,28.28
2018-07-22T17:00:03.421Z,28.23
2018-07-22T17:01:03.343Z,28.23
2018-07-22T17:02:57.639Z,28.01
2018-07-22T17:03:57.589Z,27.94
2018-07-22T17:05:50.905Z,27.91
2018-07-22T17:06:50.836Z,27.80
2018-07-22T17:08:44.152Z,27.83
2018-07-22T17:09:44.082Z,27.76
2018-07-22T17:11:37.397Z,27.62
2018-07-22T17:12:37.348Z,27.43
2018-07-22T17:14:30.660Z,27.45
2018-07-22T17:15:30.588Z,27.57
2018-07-22T17:17:23.892Z,27.62
2018-07-22T17:18:23.829Z,27.46
2018-07-22T17:20:17.165Z,27.23
2018-07-22T17:21:17.073Z,27.30
2018-07-22T17:23:10.367Z,27.34
2018-07-22T17:24:10.313Z,27.43
2018-07-22T17:26:03.649Z,27.46
2018-07-22T17:27:03.576Z,27.53
2018-07-22T17:28:56.876Z,27.53
2018-07-22T17:29:56.803Z,27.46
2018-07-22T17:31:50.100Z,27.27
2018-07-22T17:32:50.047Z,27.24
2018-07-22T17:34:43.414Z,27.23
2018-07-22T17:35:43.341Z,27.23
2018-07-22T17:37:36.635Z,27.27
2018-07-22T17:38:36.582Z,27.23
2018-07-22T17:40:29.993Z,27.33
2018-07-22T17:41:29.819Z,27.37
2018-07-22T17:43:23.114Z,27.45
2018-07-22T17:44:23.061Z,27.45
2018-07-22T17:46:16.373Z,27.34
2018-07-22T17:47:16.301Z,27.37
2018-07-22T17:49:09.714Z,27.34
2018-07-22T17:50:09.545Z,27.15
2018-07-22T17:52:02.839Z,27.06
2018-07-22T17:53:02.782Z,27.05
2018-07-22T17:54:56.104Z,27.13
2018-07-22T17:55:56.027Z,27.24
2018-07-22T17:57:49.399Z,27.21
2018-07-22T17:58:49.343Z,27.42
2018-07-22T18:00:42.660Z,27.27
2018-07-22T18:01:42.586Z,27.08
2018-07-22T18:03:35.880Z,27.15
2018-07-22T18:04:35.826Z,27.21
2018-07-22T18:06:29.147Z,27.11
2018-07-22T18:07:29.071Z,27.21
2018-07-22T18:09:22.482Z,27.15
2018-07-22T18:10:22.311Z,27.18
2018-07-22T18:12:15.618Z,26.99
2018-07-22T18:13:15.553Z,26.89
2018-07-22T18:15:08.863Z,26.69
2018-07-22T18:16:08.792Z,26.71
2018-07-22T18:18:02.086Z,26.71
2018-07-22T18:19:02.025Z,26.69
2018-07-22T18:20:55.452Z,26.72
2018-07-22T18:21:55.381Z,26.72
2018-07-22T18:23:49.684Z,26.81
2018-07-22T18:24:49.618Z,26.86
2018-07-22T18:26:42.932Z,26.87
2018-07-22T18:27:42.858Z,26.87
2018-07-22T18:29:36.172Z,26.84
2018-07-22T18:30:36.094Z,26.86
2018-07-22T18:32:29.401Z,26.86
2018-07-22T18:33:29.344Z,26.90
2018-07-22T18:35:22.661Z,26.76